Terminal Aerodrome Forecast
Issued by NWS

Home | Current Version | Previous Version | Text Only | Print | Product List | Glossary On
Versions: 1 2 3 4 5 6 7 8 9 10 11 12 13 14 15 16 17 18 19 20 21 22 23 24 25 26 27 28
000
FTUS44 KHGX 232058 AAA
TAFLBX
TAF AMD
KLBX 232058Z 2321/2418 14013KT P6SM SCT028 BKN035 BKN040
     FM240500 17009KT 5SM BR SCT010
     FM240900 17007KT 6SM BR BKN009
     FM241400 19010KT P6SM SCT015=

USA.gov is the U.S. government's official web portal to all federal, state and local government web resources and services.